createdAt,value
2019-05-05T00:01:50.955Z,4.30
2019-05-05T00:04:26.845Z,4.30
2019-05-05T00:06:55.369Z,4.30
2019-05-05T00:09:25.266Z,4.20
2019-05-05T00:12:01.668Z,4.20
2019-05-05T00:14:35.151Z,4.20
2019-05-05T00:17:11.252Z,4.10
2019-05-05T00:19:39.675Z,4.10
2019-05-05T00:22:08.142Z,4.00
2019-05-05T00:24:36.560Z,4.00
2019-05-05T00:27:05.116Z,3.90
2019-05-05T00:29:34.732Z,3.90
2019-05-05T00:32:04.929Z,3.90
2019-05-05T00:34:34.988Z,3.90
2019-05-05T00:37:04.610Z,3.90
2019-05-05T00:39:34.486Z,3.90
2019-05-05T00:42:04.808Z,3.80
2019-05-05T00:44:35.231Z,3.80
2019-05-05T00:47:05.400Z,3.80
2019-05-05T00:49:45.623Z,3.70
2019-05-05T00:52:06.200Z,3.80
2019-05-05T00:54:34.805Z,3.80
2019-05-05T00:57:04.425Z,3.70
2019-05-05T00:59:34.772Z,3.70
2019-05-05T01:02:05.036Z,3.70
2019-05-05T01:04:35.252Z,3.70
2019-05-05T01:07:04.965Z,3.70
2019-05-05T01:09:34.402Z,3.80
2019-05-05T01:12:04.392Z,3.80
2019-05-05T01:14:34.285Z,3.70
2019-05-05T01:17:05.145Z,3.70
2019-05-05T01:19:34.986Z,3.60
2019-05-05T01:22:04.940Z,3.60
2019-05-05T01:24:34.183Z,3.60
2019-05-05T01:27:04.268Z,3.60
2019-05-05T01:29:34.638Z,3.60
2019-05-05T01:32:05.103Z,3.50
2019-05-05T01:34:35.385Z,3.50
2019-05-05T01:37:08.182Z,3.40
2019-05-05T01:39:47.551Z,3.40
2019-05-05T01:42:16.716Z,3.40
2019-05-05T01:44:45.415Z,3.30
2019-05-05T01:47:14.783Z,3.30
2019-05-05T01:49:45.287Z,3.30
2019-05-05T01:52:14.902Z,3.20
2019-05-05T01:54:44.631Z,3.20
2019-05-05T01:57:14.769Z,3.20
2019-05-05T01:59:44.882Z,3.20
2019-05-05T02:02:14.648Z,3.10
2019-05-05T02:04:44.703Z,3.10
2019-05-05T02:07:14.512Z,3.10
2019-05-05T02:09:44.841Z,3.10
2019-05-05T02:12:15.832Z,3.10
2019-05-05T02:14:44.551Z,3.00
2019-05-05T02:17:32.454Z,3.00
2019-05-05T02:20:00.978Z,2.90
2019-05-05T02:22:29.403Z,3.00
2019-05-05T02:24:57.851Z,3.00
2019-05-05T02:27:26.277Z,3.00
2019-05-05T02:29:56.408Z,3.10
2019-05-05T02:32:36.253Z,3.00
2019-05-05T02:35:08.355Z,3.10
2019-05-05T02:37:36.864Z,3.10
2019-05-05T02:40:10.049Z,3.10
2019-05-05T02:42:38.635Z,3.10
2019-05-05T02:45:09.072Z,3.10
2019-05-05T02:47:46.522Z,3.10
2019-05-05T02:50:17.381Z,2.90
2019-05-05T02:52:46.858Z,3.00
2019-05-05T02:55:17.034Z,2.90
2019-05-05T02:57:45.978Z,2.90
2019-05-05T03:00:25.771Z,2.90
2019-05-05T03:02:56.670Z,2.90
2019-05-05T03:05:25.539Z,2.90
2019-05-05T03:07:55.624Z,2.90
2019-05-05T03:10:26.003Z,2.80
2019-05-05T03:12:55.577Z,2.80
2019-05-05T03:15:36.235Z,2.80
2019-05-05T03:18:04.851Z,2.80
2019-05-05T03:20:34.333Z,2.80
2019-05-05T03:23:04.222Z,2.80
2019-05-05T03:25:33.460Z,2.80
2019-05-05T03:28:02.073Z,2.80
2019-05-05T03:30:31.068Z,2.80
2019-05-05T03:32:59.848Z,2.80
2019-05-05T03:35:28.519Z,2.90
2019-05-05T03:37:57.332Z,2.90
2019-05-05T03:40:27.731Z,2.90
2019-05-05T03:43:04.248Z,2.90
2019-05-05T03:45:40.387Z,3.00
2019-05-05T03:48:08.855Z,3.00
2019-05-05T03:50:37.478Z,3.10
2019-05-05T03:53:05.995Z,3.10
2019-05-05T03:55:35.199Z,3.20
2019-05-05T03:58:04.178Z,3.20
2019-05-05T04:00:54.904Z,3.20
2019-05-05T04:03:23.747Z,3.20
2019-05-05T04:05:53.939Z,3.20
2019-05-05T04:08:23.478Z,3.20
2019-05-05T04:10:54.492Z,3.20
2019-05-05T04:13:24.230Z,3.10
2019-05-05T04:16:11.073Z,3.20
2019-05-05T04:18:59.626Z,3.20
2019-05-05T04:21:33.460Z,3.20
2019-05-05T04:23:58.232Z,3.30
2019-05-05T04:26:26.731Z,3.30
2019-05-05T04:28:55.247Z,3.30
2019-05-05T04:31:24.145Z,3.20
2019-05-05T04:33:53.861Z,3.20
2019-05-05T04:36:23.549Z,3.30
2019-05-05T04:38:54.387Z,3.40
2019-05-05T04:41:24.420Z,3.40
2019-05-05T04:43:54.536Z,3.50
2019-05-05T04:46:24.565Z,3.80
2019-05-05T04:48:54.567Z,3.80
2019-05-05T04:51:24.731Z,4.00
2019-05-05T04:54:09.784Z,4.10
2019-05-05T04:56:38.232Z,4.20
2019-05-05T04:59:06.714Z,4.30
2019-05-05T05:01:35.608Z,4.40
2019-05-05T05:04:13.753Z,4.60
2019-05-05T05:06:46.322Z,4.60
2019-05-05T05:09:14.786Z,4.70
2019-05-05T05:11:44.284Z,4.80
2019-05-05T05:14:14.393Z,4.90
2019-05-05T05:16:43.732Z,4.90
2019-05-05T05:19:13.814Z,5.00
2019-05-05T05:21:43.650Z,4.90
2019-05-05T05:24:14.464Z,4.90
2019-05-05T05:26:44.151Z,5.10
2019-05-05T05:29:14.848Z,5.20
2019-05-05T05:31:44.264Z,5.20
2019-05-05T05:34:14.773Z,5.40
2019-05-05T05:36:44.285Z,5.50
2019-05-05T05:39:17.555Z,5.60
2019-05-05T05:41:46.471Z,5.70
2019-05-05T05:44:28.967Z,5.50
2019-05-05T05:47:08.342Z,5.60
2019-05-05T05:49:38.395Z,5.60
2019-05-05T05:52:15.741Z,5.70
2019-05-05T05:54:37.018Z,5.70
2019-05-05T05:57:05.467Z,6.00
2019-05-05T05:59:34.071Z,6.00
2019-05-05T06:02:09.826Z,6.00
2019-05-05T06:04:34.040Z,6.10
2019-05-05T06:07:04.101Z,6.20
2019-05-05T06:09:34.509Z,6.30
2019-05-05T06:12:03.579Z,6.40
2019-05-05T06:14:34.186Z,6.30
2019-05-05T06:17:04.310Z,6.30
2019-05-05T06:19:33.813Z,6.20
2019-05-05T06:22:03.552Z,6.20
2019-05-05T06:24:34.378Z,6.10
2019-05-05T06:27:03.745Z,6.10
2019-05-05T06:29:34.349Z,6.30
2019-05-05T06:32:04.015Z,6.20
2019-05-05T06:34:33.825Z,6.30
2019-05-05T06:37:04.228Z,6.10
2019-05-05T06:39:33.467Z,6.30
2019-05-05T06:42:04.479Z,6.40
2019-05-05T06:44:37.886Z,6.40
2019-05-05T06:47:14.790Z,6.30
2019-05-05T06:49:43.798Z,6.30
2019-05-05T06:52:14.144Z,6.20
2019-05-05T06:54:43.834Z,6.20
2019-05-05T06:57:13.698Z,6.40
2019-05-05T06:59:43.864Z,6.50
2019-05-05T07:02:14.394Z,6.70
2019-05-05T07:04:44.469Z,7.10
2019-05-05T07:07:14.600Z,7.30
2019-05-05T07:09:44.282Z,7.50
2019-05-05T07:12:13.850Z,7.70
2019-05-05T07:14:44.363Z,7.70
2019-05-05T07:17:14.062Z,7.50
2019-05-05T07:19:45.004Z,7.30
2019-05-05T07:22:14.075Z,6.80
2019-05-05T07:24:43.657Z,6.80
2019-05-05T07:27:13.870Z,6.60
2019-05-05T07:29:43.756Z,6.60
2019-05-05T07:32:14.235Z,6.50
2019-05-05T07:34:54.626Z,6.50
2019-05-05T07:37:23.814Z,6.60
2019-05-05T07:39:54.076Z,6.60
2019-05-05T07:42:24.317Z,7.00
2019-05-05T07:44:54.719Z,7.00
2019-05-05T07:47:23.829Z,7.10
2019-05-05T07:49:53.539Z,7.20
2019-05-05T07:52:23.766Z,7.40
2019-05-05T07:54:52.443Z,7.60
2019-05-05T07:57:20.868Z,7.70
2019-05-05T07:59:49.382Z,7.70
2019-05-05T08:02:17.812Z,7.70
2019-05-05T08:04:46.512Z,7.80
2019-05-05T08:07:15.294Z,8.10
2019-05-05T08:09:44.458Z,8.40
2019-05-05T08:12:13.711Z,8.50
2019-05-05T08:14:44.478Z,8.60
2019-05-05T08:17:17.104Z,8.40
2019-05-05T08:19:50.250Z,8.40
2019-05-05T08:22:18.911Z,8.20
2019-05-05T08:24:57.994Z,8.70
2019-05-05T08:27:31.092Z,8.80
2019-05-05T08:30:04.611Z,9.30
2019-05-05T08:32:35.614Z,10.00
2019-05-05T08:35:04.384Z,10.10
2019-05-05T08:37:34.339Z,9.90
2019-05-05T08:40:04.381Z,9.60
2019-05-05T08:42:33.888Z,10.00
2019-05-05T08:45:04.462Z,10.10
2019-05-05T08:47:34.572Z,10.30
2019-05-05T08:50:04.759Z,9.80
2019-05-05T08:52:34.263Z,9.90
2019-05-05T08:55:04.670Z,9.90
2019-05-05T08:57:34.093Z,9.70
2019-05-05T09:00:04.923Z,9.70
2019-05-05T09:02:35.972Z,9.50
2019-05-05T09:05:05.047Z,9.80
2019-05-05T09:07:33.723Z,9.80
2019-05-05T09:10:03.866Z,9.60
2019-05-05T09:12:33.885Z,9.80
2019-05-05T09:15:04.420Z,10.50
2019-05-05T09:17:33.640Z,10.90
2019-05-05T09:20:04.378Z,11.10
2019-05-05T09:22:34.700Z,10.60
2019-05-05T09:25:10.288Z,10.80
2019-05-05T09:27:44.277Z,11.20
2019-05-05T09:30:14.881Z,11.40
2019-05-05T09:32:43.928Z,11.50
2019-05-05T09:35:13.917Z,11.60
2019-05-05T09:37:44.314Z,11.80
2019-05-05T09:40:13.843Z,12.10
2019-05-05T09:42:44.281Z,12.00
2019-05-05T09:45:13.970Z,11.70
2019-05-05T09:47:44.868Z,11.00
2019-05-05T09:50:14.360Z,10.60
2019-05-05T09:52:44.357Z,10.10
2019-05-05T09:55:13.868Z,9.90
2019-05-05T09:57:43.775Z,9.70
2019-05-05T10:00:14.453Z,9.90
2019-05-05T10:02:44.193Z,10.10
2019-05-05T10:05:14.520Z,10.10
2019-05-05T10:07:44.094Z,10.10
2019-05-05T10:10:13.865Z,10.30
2019-05-05T10:12:44.391Z,10.40
2019-05-05T10:15:13.887Z,10.70
2019-05-05T10:17:43.097Z,11.20
2019-05-05T10:20:14.383Z,11.30
2019-05-05T10:22:43.840Z,11.40
2019-05-05T10:25:34.427Z,11.60
2019-05-05T10:28:04.226Z,12.20
2019-05-05T10:30:33.598Z,12.80
2019-05-05T10:33:03.804Z,13.10
2019-05-05T10:35:34.273Z,13.10
2019-05-05T10:38:02.596Z,12.70
2019-05-05T10:40:33.885Z,11.80
2019-05-05T10:43:04.440Z,10.70
2019-05-05T10:45:33.350Z,10.20
2019-05-05T10:50:33.863Z,9.60
2019-05-05T10:53:04.291Z,9.20
2019-05-05T10:55:34.371Z,9.10
2019-05-05T11:00:49.152Z,9.50
2019-05-05T11:03:17.612Z,9.90
2019-05-05T11:05:46.212Z,10.30
2019-05-05T11:08:14.890Z,10.20
2019-05-05T11:10:45.113Z,10.20
2019-05-05T11:13:14.369Z,10.40
2019-05-05T11:15:44.335Z,10.30
2019-05-05T11:18:14.841Z,10.40
2019-05-05T11:20:44.836Z,10.40
2019-05-05T11:23:14.807Z,10.50
2019-05-05T11:25:44.478Z,10.60
2019-05-05T11:28:13.321Z,10.60
2019-05-05T11:30:45.299Z,10.70
2019-05-05T11:35:57.542Z,10.70
2019-05-05T11:38:25.980Z,10.70
2019-05-05T11:40:54.757Z,11.10
2019-05-05T11:43:24.621Z,11.10
2019-05-05T11:45:54.432Z,11.30
2019-05-05T11:48:23.998Z,11.40
2019-05-05T11:50:53.973Z,11.70
2019-05-05T11:53:24.890Z,12.10
2019-05-05T11:55:54.928Z,12.40
2019-05-05T11:58:24.860Z,12.40
2019-05-05T12:00:54.461Z,12.60
2019-05-05T12:03:23.499Z,13.00
2019-05-05T12:05:51.926Z,12.80
2019-05-05T12:08:20.399Z,12.30
2019-05-05T12:10:54.210Z,12.40
2019-05-05T12:13:22.792Z,12.00
2019-05-05T12:16:04.344Z,12.00
2019-05-05T12:18:34.284Z,11.60
2019-05-05T12:21:05.104Z,11.20
2019-05-05T12:23:34.192Z,10.40
2019-05-05T12:26:07.726Z,9.50
2019-05-05T12:28:37.905Z,9.20
2019-05-05T12:31:08.043Z,9.20
2019-05-05T12:33:36.615Z,9.30
2019-05-05T12:36:05.220Z,9.50
2019-05-05T12:38:34.719Z,9.70
2019-05-05T12:41:04.314Z,9.90
2019-05-05T12:43:34.037Z,10.00
2019-05-05T12:46:24.294Z,10.40
2019-05-05T12:48:54.638Z,10.80
2019-05-05T12:53:53.976Z,11.10
2019-05-05T12:56:23.838Z,10.50
2019-05-05T12:58:54.365Z,10.60
2019-05-05T13:01:24.639Z,10.70
2019-05-05T13:03:54.286Z,10.70
2019-05-05T13:06:24.004Z,10.50
2019-05-05T13:08:52.808Z,10.30
2019-05-05T13:11:23.611Z,10.50
2019-05-05T13:13:51.755Z,10.80
2019-05-05T13:16:22.559Z,11.30
2019-05-05T13:18:50.476Z,11.80
2019-05-05T13:21:34.696Z,12.20
2019-05-05T13:24:20.849Z,12.00
2019-05-05T13:26:57.203Z,12.00
2019-05-05T13:29:25.661Z,11.70
2019-05-05T13:31:54.422Z,11.60
2019-05-05T13:34:23.032Z,11.60
2019-05-05T13:36:51.663Z,11.50
2019-05-05T13:41:48.248Z,11.20
2019-05-05T13:46:46.640Z,11.50
2019-05-05T13:49:31.883Z,11.50
2019-05-05T13:52:01.988Z,11.60
2019-05-05T13:54:30.483Z,11.80
2019-05-05T13:56:58.939Z,11.80
2019-05-05T13:59:27.369Z,11.80
2019-05-05T14:01:56.373Z,11.80
2019-05-05T14:04:29.727Z,12.10
2019-05-05T14:06:58.320Z,12.10
2019-05-05T14:09:28.231Z,12.30
2019-05-05T14:11:56.712Z,12.50
2019-05-05T14:14:25.250Z,12.80
2019-05-05T14:16:53.946Z,13.10
2019-05-05T14:19:24.793Z,13.20
2019-05-05T14:21:53.830Z,13.10
2019-05-05T14:24:24.271Z,13.40
2019-05-05T14:26:54.230Z,13.10
2019-05-05T14:29:39.197Z,13.20
2019-05-05T14:32:09.221Z,13.00
2019-05-05T14:34:39.285Z,12.80
2019-05-05T14:37:26.227Z,12.60
2019-05-05T14:39:55.367Z,12.60
2019-05-05T14:42:23.852Z,12.20
2019-05-05T14:44:54.392Z,12.30
2019-05-05T14:47:24.486Z,12.30
2019-05-05T14:49:54.047Z,12.20
2019-05-05T14:52:24.569Z,12.20
2019-05-05T14:54:54.434Z,12.00
2019-05-05T14:57:25.111Z,11.80
2019-05-05T14:59:54.049Z,12.00
2019-05-05T15:02:24.398Z,12.40
2019-05-05T15:04:54.028Z,12.60
2019-05-05T15:07:34.905Z,12.40
2019-05-05T15:10:17.172Z,12.60
2019-05-05T15:12:46.825Z,12.60
2019-05-05T15:15:15.390Z,12.70
2019-05-05T15:17:44.027Z,12.40
2019-05-05T15:20:13.988Z,12.00
2019-05-05T15:22:43.664Z,12.10
2019-05-05T15:25:12.903Z,12.00
2019-05-05T15:27:41.427Z,12.00
2019-05-05T15:30:11.059Z,12.10
2019-05-05T15:32:39.610Z,12.00
2019-05-05T15:35:08.402Z,12.30
2019-05-05T15:37:36.918Z,12.40
2019-05-05T15:40:06.113Z,12.50
2019-05-05T15:42:34.559Z,12.40
2019-05-05T15:45:04.058Z,12.50
2019-05-05T15:47:34.293Z,12.60
2019-05-05T15:50:05.404Z,12.60
2019-05-05T15:52:35.141Z,12.70
2019-05-05T15:55:06.811Z,12.80
2019-05-05T15:57:35.391Z,12.60
2019-05-05T16:00:06.552Z,12.20
2019-05-05T16:02:36.073Z,12.00
2019-05-05T16:05:07.791Z,11.90
2019-05-05T16:07:36.319Z,12.00
2019-05-05T16:10:07.032Z,12.00
2019-05-05T16:12:39.374Z,11.80
2019-05-05T16:15:21.707Z,11.70
2019-05-05T16:18:00.582Z,11.70
2019-05-05T16:20:44.380Z,11.50
2019-05-05T16:23:30.955Z,11.60
2019-05-05T16:25:59.511Z,11.70
2019-05-05T16:28:27.955Z,11.70
2019-05-05T16:30:56.602Z,11.70
2019-05-05T16:33:25.102Z,11.90
2019-05-05T16:35:53.666Z,12.00
2019-05-05T16:38:23.915Z,12.00
2019-05-05T16:40:53.827Z,12.20
2019-05-05T16:43:24.541Z,12.30
2019-05-05T16:45:53.735Z,12.30
2019-05-05T16:48:25.250Z,11.90
2019-05-05T16:50:54.150Z,11.90
2019-05-05T16:53:38.363Z,11.70
2019-05-05T16:56:16.061Z,11.70
2019-05-05T16:58:47.256Z,11.60
2019-05-05T17:01:17.056Z,11.70
2019-05-05T17:03:46.006Z,11.70
2019-05-05T17:06:14.560Z,11.60
2019-05-05T17:08:44.406Z,11.50
2019-05-05T17:11:14.987Z,11.40
2019-05-05T17:13:50.600Z,11.40
2019-05-05T17:16:36.126Z,11.30
2019-05-05T17:19:09.196Z,11.10
2019-05-05T17:21:39.494Z,11.20
2019-05-05T17:24:07.924Z,11.20
2019-05-05T17:26:36.485Z,11.20
2019-05-05T17:29:05.005Z,11.10
2019-05-05T17:31:33.955Z,10.90
2019-05-05T17:34:04.181Z,10.80
2019-05-05T17:36:32.896Z,10.90
2019-05-05T17:39:01.448Z,10.80
2019-05-05T17:41:49.821Z,10.70
2019-05-05T17:44:25.987Z,10.70
2019-05-05T17:47:01.788Z,10.60
2019-05-05T17:49:37.828Z,10.50
2019-05-05T17:52:17.171Z,10.50
2019-05-05T17:54:47.312Z,10.40
2019-05-05T17:57:15.755Z,10.30
2019-05-05T17:59:44.405Z,10.30
2019-05-05T18:02:13.036Z,10.30
2019-05-05T18:04:44.288Z,10.30
2019-05-05T18:07:14.335Z,10.30
2019-05-05T18:09:56.132Z,10.20
2019-05-05T18:12:33.770Z,10.10
2019-05-05T18:15:04.468Z,10.00
2019-05-05T18:17:34.006Z,9.90
2019-05-05T18:20:04.371Z,9.90
2019-05-05T18:22:34.276Z,9.90
2019-05-05T18:25:03.851Z,10.00
2019-05-05T18:27:34.304Z,10.10
2019-05-05T18:30:03.973Z,10.10
2019-05-05T18:32:34.199Z,10.20
2019-05-05T18:35:06.358Z,10.20
2019-05-05T18:37:33.988Z,10.20
2019-05-05T18:40:04.125Z,10.10
2019-05-05T18:42:33.967Z,10.10
2019-05-05T18:45:04.341Z,10.10
2019-05-05T18:47:34.058Z,10.00
2019-05-05T18:50:04.123Z,10.00
2019-05-05T18:52:34.520Z,10.10
2019-05-05T18:55:04.375Z,10.00
2019-05-05T18:57:34.190Z,9.90
2019-05-05T19:00:04.303Z,9.90
2019-05-05T19:02:49.315Z,9.90
2019-05-05T19:05:29.358Z,9.80
2019-05-05T19:08:02.127Z,9.70
2019-05-05T19:10:30.717Z,9.60
2019-05-05T19:12:59.201Z,9.50
2019-05-05T19:15:27.882Z,9.40
2019-05-05T19:17:56.516Z,9.40
2019-05-05T19:20:35.011Z,9.30
2019-05-05T19:23:05.961Z,9.30
2019-05-05T19:25:35.758Z,9.20
2019-05-05T19:28:04.839Z,9.20
2019-05-05T19:30:35.829Z,9.10
2019-05-05T19:33:04.450Z,9.00
2019-05-05T19:35:43.549Z,8.90
2019-05-05T19:38:04.892Z,8.80
2019-05-05T19:40:33.955Z,8.80
2019-05-05T19:43:04.591Z,8.70
2019-05-05T19:45:34.480Z,8.70
2019-05-05T19:48:05.559Z,8.60
2019-05-05T19:50:34.977Z,8.50
2019-05-05T19:53:04.546Z,8.40
2019-05-05T19:55:36.381Z,8.30
2019-05-05T19:58:05.037Z,8.30
2019-05-05T20:00:35.146Z,8.30
2019-05-05T20:03:05.094Z,8.20
2019-05-05T20:05:34.181Z,8.30
2019-05-05T20:08:03.987Z,8.30
2019-05-05T20:10:32.724Z,8.30
2019-05-05T20:13:01.196Z,8.40
2019-05-05T20:15:31.334Z,8.40
2019-05-05T20:17:59.855Z,8.50
2019-05-05T20:20:28.301Z,8.50
2019-05-05T20:22:56.772Z,8.40
2019-05-05T20:25:25.308Z,8.50
2019-05-05T20:27:55.828Z,8.50
2019-05-05T20:30:24.674Z,8.40
2019-05-05T20:32:57.895Z,8.40
2019-05-05T20:35:39.997Z,8.30
2019-05-05T20:38:10.086Z,8.30
2019-05-05T20:40:40.226Z,8.40
2019-05-05T20:43:08.688Z,8.40
2019-05-05T20:45:37.135Z,8.50
2019-05-05T20:48:05.636Z,8.50
2019-05-05T20:50:34.386Z,8.50
2019-05-05T20:53:04.833Z,8.50
2019-05-05T20:55:33.949Z,8.60
2019-05-05T20:58:04.581Z,8.70
2019-05-05T21:00:34.554Z,8.70
2019-05-05T21:03:04.808Z,8.70
2019-05-05T21:05:34.372Z,8.70
2019-05-05T21:08:04.775Z,8.70
2019-05-05T21:10:34.724Z,8.60
2019-05-05T21:13:03.842Z,8.50
2019-05-05T21:15:34.002Z,8.40
2019-05-05T21:18:04.925Z,8.30
2019-05-05T21:20:34.653Z,8.30
2019-05-05T21:23:05.211Z,8.20
2019-05-05T21:25:36.050Z,8.10
2019-05-05T21:28:04.498Z,8.00
2019-05-05T21:30:33.752Z,8.00
2019-05-05T21:33:04.462Z,7.90
2019-05-05T21:35:34.784Z,7.90
2019-05-05T21:38:04.706Z,7.90
2019-05-05T21:40:34.569Z,8.00
2019-05-05T21:43:04.961Z,8.00
2019-05-05T21:45:34.748Z,8.00
2019-05-05T21:48:04.331Z,7.90
2019-05-05T21:50:43.383Z,7.80
2019-05-05T21:53:16.467Z,7.60
2019-05-05T21:55:55.673Z,7.60
2019-05-05T21:58:25.853Z,7.50
2019-05-05T22:00:56.164Z,7.40
2019-05-05T22:03:26.243Z,7.40
2019-05-05T22:05:56.001Z,7.40
2019-05-05T22:08:24.624Z,7.30
2019-05-05T22:10:54.377Z,7.30
2019-05-05T22:13:22.875Z,7.30
2019-05-05T22:15:51.389Z,7.20
2019-05-05T22:18:19.834Z,7.20
2019-05-05T22:21:04.802Z,7.20
2019-05-05T22:23:34.011Z,7.10
2019-05-05T22:26:04.156Z,7.10
2019-05-05T22:28:34.030Z,7.10
2019-05-05T22:31:04.696Z,7.00
2019-05-05T22:33:34.034Z,7.10
2019-05-05T22:36:04.360Z,7.10
2019-05-05T22:38:34.011Z,7.10
2019-05-05T22:41:02.692Z,7.00
2019-05-05T22:43:31.294Z,7.00
2019-05-05T22:45:59.727Z,6.90
2019-05-05T22:48:28.164Z,6.90
2019-05-05T22:50:56.606Z,6.80
2019-05-05T22:53:25.205Z,6.80
2019-05-05T22:55:53.683Z,6.70
2019-05-05T22:58:24.091Z,6.80
2019-05-05T23:00:54.700Z,6.70
2019-05-05T23:03:33.289Z,6.70
2019-05-05T23:06:13.783Z,6.60
2019-05-05T23:08:42.329Z,6.60
2019-05-05T23:11:10.858Z,6.60
2019-05-05T23:13:39.287Z,6.50
2019-05-05T23:16:09.387Z,6.50
2019-05-05T23:18:37.908Z,6.50
2019-05-05T23:21:08.019Z,6.50
2019-05-05T23:23:38.181Z,6.40
2019-05-05T23:26:08.358Z,6.40
2019-05-05T23:28:36.825Z,6.40
2019-05-05T23:31:05.321Z,6.40
2019-05-05T23:33:34.538Z,6.30
2019-05-05T23:36:04.087Z,6.30
2019-05-05T23:38:34.627Z,6.30
2019-05-05T23:41:03.875Z,6.30
2019-05-05T23:43:34.425Z,6.20
2019-05-05T23:46:03.663Z,6.20
2019-05-05T23:48:34.719Z,6.10
2019-05-05T23:51:04.389Z,6.10
2019-05-05T23:53:34.465Z,6.00
2019-05-05T23:56:03.980Z,6.00
2019-05-05T23:58:34.641Z,6.00
